Time;durP1;ratioP1;P1;durP2;ratioP2;P2;SDS_P1;SDS_P2;PMS_P1;PMS_P2;Temp;Humidity;BMP_temperature;BMP_pressure;BME280_temperature;BME280_humidity;BME280_pressure;Samples;Min_cycle;Max_cycle;Signal;HPM_P1;HPM_P2
2022/04/08 00:00:18;;;;;;;8.57;1.00;;;5.70;99.90;;;;;;5030956;28;20125;-78
2022/04/08 00:02:43;;;;;;;6.75;1.25;;;5.60;99.90;;;;;;5051135;28;20415;-73
2022/04/08 00:05:09;;;;;;;6.55;1.13;;;5.70;99.90;;;;;;5059706;28;20036;-75
2022/04/08 00:07:35;;;;;;;11.23;1.10;;;5.60;99.90;;;;;;5034287;28;20399;-73
2022/04/08 00:10:02;;;;;;;6.97;1.25;;;5.50;99.90;;;;;;5046188;28;20033;-74
2022/04/08 00:12:28;;;;;;;4.70;0.98;;;5.60;99.90;;;;;;5030718;28;20415;-73
2022/04/08 00:14:53;;;;;;;4.88;0.60;;;5.60;99.90;;;;;;5047063;28;20052;-74
2022/04/08 00:17:19;;;;;;;6.43;1.33;;;5.70;99.90;;;;;;5050891;28;20072;-79
2022/04/08 00:19:44;;;;;;;4.60;1.00;;;5.60;99.90;;;;;;5030687;28;20029;-75
2022/04/08 00:22:10;;;;;;;12.30;1.45;;;5.60;99.90;;;;;;5048229;28;20041;-69
2022/04/08 00:24:35;;;;;;;10.65;1.42;;;5.60;99.90;;;;;;5049902;28;20033;-69
2022/04/08 00:27:01;;;;;;;13.73;1.35;;;5.50;99.90;;;;;;5050635;28;20036;-70
2022/04/08 00:29:26;;;;;;;13.35;1.98;;;5.50;99.90;;;;;;5059014;28;20435;-75
2022/04/08 00:31:57;;;;;;;4.28;1.33;;;5.50;99.90;;;;;;5047424;28;20056;-71
2022/04/08 00:34:24;;;;;;;5.30;1.30;;;5.30;99.90;;;;;;5049506;28;20040;-76
2022/04/08 00:36:50;;;;;;;5.38;1.20;;;5.10;99.90;;;;;;5047496;28;20120;-76
2022/04/08 00:39:16;;;;;;;6.68;1.25;;;5.00;99.90;;;;;;5058616;28;20121;-74
2022/04/08 00:41:41;;;;;;;7.05;1.00;;;4.90;99.90;;;;;;5048140;28;20448;-72
2022/04/08 00:44:07;;;;;;;8.35;1.30;;;5.10;99.90;;;;;;5051781;28;20033;-74
2022/04/08 00:46:33;;;;;;;6.72;1.02;;;5.10;99.90;;;;;;5051382;28;20067;-74
2022/04/08 00:48:58;;;;;;;3.03;0.80;;;4.80;99.90;;;;;;5034292;28;20091;-75
2022/04/08 00:51:25;;;;;;;9.77;1.48;;;4.80;99.90;;;;;;5035518;28;20067;-73
2022/04/08 00:53:51;;;;;;;7.78;1.10;;;4.80;99.90;;;;;;5051397;28;20033;-72
2022/04/08 00:56:21;;;;;;;4.85;1.65;;;4.80;99.90;;;;;;5051486;28;20041;-72
2022/04/08 00:58:46;;;;;;;8.88;1.48;;;4.80;99.90;;;;;;5044001;28;20071;-74
2022/04/08 01:01:12;;;;;;;8.48;1.58;;;4.80;99.90;;;;;;5049357;28;20444;-71
2022/04/08 01:03:37;;;;;;;9.00;1.65;;;4.70;99.90;;;;;;5048813;28;20404;-72
2022/04/08 01:06:03;;;;;;;6.95;1.55;;;4.40;99.90;;;;;;5048001;28;20030;-70
2022/04/08 01:08:28;;;;;;;13.88;1.60;;;4.30;99.90;;;;;;5051097;28;20033;-74
2022/04/08 01:10:55;;;;;;;19.98;1.98;;;4.30;99.90;;;;;;5038813;28;20500;-72
2022/04/08 01:13:21;;;;;;;10.10;1.98;;;4.30;99.90;;;;;;5058983;28;20568;-78
2022/04/08 01:15:47;;;;;;;9.98;1.65;;;4.40;99.90;;;;;;5050458;28;20045;-69
2022/04/08 01:18:12;;;;;;;13.82;2.05;;;4.30;99.90;;;;;;5034628;28;20468;-76
2022/04/08 01:20:38;;;;;;;9.40;1.50;;;4.20;99.90;;;;;;5043915;28;20045;-76
2022/04/08 01:23:05;;;;;;;10.38;1.60;;;4.20;99.90;;;;;;5050198;28;20111;-73
2022/04/08 01:25:30;;;;;;;4.90;1.27;;;4.40;99.90;;;;;;5045377;28;20065;-74
2022/04/08 01:27:56;;;;;;;13.20;1.52;;;4.40;99.90;;;;;;5052230;28;20497;-75
2022/04/08 01:30:21;;;;;;;11.30;1.38;;;4.10;99.90;;;;;;5050314;28;20040;-78
2022/04/08 01:32:47;;;;;;;9.95;0.95;;;4.10;99.90;;;;;;5033747;28;20558;-75
2022/04/08 01:35:13;;;;;;;19.95;1.50;;;4.20;99.90;;;;;;5033220;28;20123;-79
2022/04/08 01:37:39;;;;;;;18.63;1.60;;;4.10;99.90;;;;;;5049897;28;20045;-73
2022/04/08 01:40:05;;;;;;;10.65;1.98;;;4.30;99.90;;;;;;5041877;28;20040;-72
2022/04/08 01:42:30;;;;;;;8.50;1.42;;;4.00;99.90;;;;;;5027880;28;20069;-77
2022/04/08 01:44:56;;;;;;;17.00;2.10;;;4.00;99.90;;;;;;5029136;28;20076;-78
2022/04/08 01:47:22;;;;;;;10.95;1.45;;;4.10;99.90;;;;;;5032142;28;20043;-73
2022/04/08 01:49:48;;;;;;;18.63;2.05;;;4.00;99.90;;;;;;5050927;28;20396;-70
2022/04/08 01:52:14;;;;;;;13.75;2.17;;;4.10;99.90;;;;;;5041096;28;20041;-75
2022/04/08 01:54:39;;;;;;;17.25;2.40;;;4.20;99.90;;;;;;5047020;28;20399;-71
2022/04/08 01:57:05;;;;;;;14.75;1.95;;;4.20;99.90;;;;;;5049771;28;20044;-71
2022/04/08 01:59:31;;;;;;;24.30;3.20;;;4.00;99.90;;;;;;5046890;28;20044;-72
2022/04/08 02:01:59;;;;;;;27.23;3.08;;;3.90;99.90;;;;;;5031724;28;20037;-68
2022/04/08 02:04:25;;;;;;;20.35;3.15;;;3.90;99.90;;;;;;5050813;28;20048;-67
2022/04/08 02:06:51;;;;;;;21.65;3.20;;;3.80;99.90;;;;;;5038293;28;20040;-68
2022/04/08 02:09:18;;;;;;;21.73;2.92;;;3.70;99.90;;;;;;5049187;28;20037;-67
2022/04/08 02:11:44;;;;;;;29.45;3.00;;;4.00;99.90;;;;;;5053107;28;20484;-68
2022/04/08 02:14:10;;;;;;;23.10;3.08;;;3.70;99.90;;;;;;5049618;28;20071;-69
2022/04/08 02:16:35;;;;;;;24.13;2.95;;;3.90;99.90;;;;;;5049192;28;20547;-68
2022/04/08 02:19:01;;;;;;;29.95;4.15;;;3.70;99.90;;;;;;5030957;28;20476;-68
2022/04/08 02:21:27;;;;;;;26.33;2.80;;;3.70;99.90;;;;;;5042707;28;20041;-70
2022/04/08 02:23:54;;;;;;;30.95;3.67;;;3.70;99.90;;;;;;5048596;28;20036;-68
2022/04/08 02:26:20;;;;;;;28.08;3.05;;;4.10;99.90;;;;;;5058389;28;20041;-68
2022/04/08 02:28:45;;;;;;;24.00;3.22;;;4.10;99.90;;;;;;5049053;28;20079;-67
2022/04/08 02:31:12;;;;;;;29.25;4.00;;;4.20;99.90;;;;;;5061612;28;20442;-69
2022/04/08 02:33:37;;;;;;;15.15;2.78;;;4.30;99.90;;;;;;5045562;28;20078;-72
2022/04/08 02:36:04;;;;;;;10.57;2.25;;;4.30;99.90;;;;;;5048639;28;20029;-75
2022/04/08 02:38:30;;;;;;;12.55;2.20;;;4.00;99.90;;;;;;5045761;28;20056;-74
2022/04/08 02:40:55;;;;;;;10.57;2.20;;;3.80;99.90;;;;;;5047465;28;20037;-75
2022/04/08 02:43:22;;;;;;;9.60;1.70;;;3.80;99.90;;;;;;5033763;28;20385;-69
2022/04/08 02:45:48;;;;;;;12.20;1.67;;;3.50;99.90;;;;;;5025040;28;20568;-71
2022/04/08 02:48:13;;;;;;;21.75;3.20;;;3.70;99.90;;;;;;5029294;28;20143;-71
2022/04/08 02:50:40;;;;;;;20.27;2.85;;;3.50;99.90;;;;;;5048253;28;20069;-70
2022/04/08 02:53:05;;;;;;;16.05;3.33;;;3.10;99.90;;;;;;5060140;28;20041;-73
2022/04/08 02:55:31;;;;;;;18.65;3.05;;;2.80;99.90;;;;;;5059178;28;20044;-71
2022/04/08 02:57:56;;;;;;;17.33;2.80;;;2.70;99.90;;;;;;5032097;28;20041;-72
2022/04/08 03:00:22;;;;;;;16.95;2.70;;;3.00;99.90;;;;;;5051023;28;20049;-71
2022/04/08 03:02:50;;;;;;;14.90;2.92;;;2.90;99.90;;;;;;5048133;28;20100;-73
2022/04/08 03:05:16;;;;;;;14.60;2.65;;;2.90;99.90;;;;;;5044392;28;20395;-74
2022/04/08 03:07:42;;;;;;;19.17;3.17;;;2.90;99.90;;;;;;5042814;28;20076;-71
2022/04/08 03:10:09;;;;;;;12.88;2.60;;;2.80;99.90;;;;;;5057494;28;20108;-73
2022/04/08 03:12:35;;;;;;;21.88;3.55;;;2.70;99.90;;;;;;5048838;28;20041;-72
2022/04/08 03:15:01;;;;;;;16.75;2.45;;;2.90;99.90;;;;;;5052689;28;20091;-72
2022/04/08 03:17:27;;;;;;;19.67;3.22;;;2.60;99.90;;;;;;5025721;28;20051;-73
2022/04/08 03:19:53;;;;;;;17.67;3.00;;;2.70;99.90;;;;;;5047037;28;20053;-72
2022/04/08 03:22:20;;;;;;;15.85;2.65;;;2.90;99.90;;;;;;5043494;28;20037;-70
2022/04/08 03:24:50;;;;;;;16.73;3.20;;;2.60;99.90;;;;;;5032240;28;20044;-68
2022/04/08 03:27:18;;;;;;;19.60;2.97;;;2.70;99.90;;;;;;5047130;28;20029;-73
2022/04/08 03:29:44;;;;;;;21.23;2.67;;;2.90;99.90;;;;;;5011742;28;1022381;-69
2022/04/08 03:32:10;;;;;;;18.13;3.38;;;3.00;99.90;;;;;;5046979;28;20523;-74
2022/04/08 03:34:36;;;;;;;17.02;2.65;;;3.30;99.90;;;;;;5047604;28;20071;-72
2022/04/08 03:37:02;;;;;;;24.13;3.47;;;3.40;99.90;;;;;;5032036;28;20476;-74
2022/04/08 03:39:27;;;;;;;23.85;3.00;;;3.60;99.90;;;;;;5048379;28;20044;-71
2022/04/08 03:41:53;;;;;;;16.58;2.60;;;3.50;99.90;;;;;;5048249;28;20480;-74
2022/04/08 03:44:19;;;;;;;13.35;2.40;;;3.50;99.90;;;;;;5031112;28;20041;-75
2022/04/08 03:46:46;;;;;;;22.00;2.65;;;3.80;99.90;;;;;;5031918;28;20041;-75
2022/04/08 03:49:14;;;;;;;21.67;2.60;;;3.60;99.90;;;;;;5047061;28;20041;-74
2022/04/08 03:51:41;;;;;;;16.70;2.47;;;3.80;99.90;;;;;;5027944;28;20464;-72
2022/04/08 03:54:07;;;;;;;16.05;3.15;;;3.50;99.90;;;;;;5045430;28;20045;-73
2022/04/08 03:56:33;;;;;;;17.35;2.95;;;3.70;99.90;;;;;;5029263;28;20037;-71
2022/04/08 03:58:59;;;;;;;18.23;2.67;;;3.40;99.90;;;;;;5047334;28;20041;-73
2022/04/08 04:01:25;;;;;;;23.02;3.55;;;3.40;99.90;;;;;;5042446;28;20043;-71
2022/04/08 04:03:50;;;;;;;21.90;4.63;;;3.50;99.90;;;;;;5060598;28;20080;-69
2022/04/08 04:06:16;;;;;;;29.25;3.58;;;3.80;99.90;;;;;;5042438;28;20400;-74
2022/04/08 04:08:41;;;;;;;26.27;3.58;;;3.90;99.90;;;;;;5029195;28;20377;-72
2022/04/08 04:11:07;;;;;;;22.42;3.53;;;3.70;99.90;;;;;;5048968;28;20086;-69
2022/04/08 04:13:32;;;;;;;21.55;3.20;;;3.80;99.90;;;;;;5053912;28;20056;-69
2022/04/08 04:15:58;;;;;;;28.58;3.60;;;3.80;99.90;;;;;;5040186;28;20088;-71
2022/04/08 04:18:25;;;;;;;22.65;3.42;;;4.00;99.90;;;;;;5031106;28;20032;-77
2022/04/08 04:20:50;;;;;;;24.05;3.70;;;3.90;99.90;;;;;;5032385;28;21655;-73
2022/04/08 04:23:16;;;;;;;20.95;3.33;;;3.90;99.90;;;;;;5047920;28;20036;-72
2022/04/08 04:25:41;;;;;;;13.27;3.33;;;4.00;99.90;;;;;;5026039;28;20033;-72
2022/04/08 04:28:07;;;;;;;22.13;3.67;;;3.90;99.90;;;;;;5029008;28;20045;-72
2022/04/08 04:30:33;;;;;;;12.07;2.40;;;3.90;99.90;;;;;;5027358;28;20136;-75
2022/04/08 04:33:00;;;;;;;20.80;2.60;;;4.10;99.90;;;;;;5031973;28;20033;-72
2022/04/08 04:35:26;;;;;;;23.35;3.70;;;4.00;99.90;;;;;;5051448;28;20041;-73
2022/04/08 04:37:52;;;;;;;22.48;3.53;;;4.10;99.90;;;;;;5047587;28;20087;-73
2022/04/08 04:40:17;;;;;;;19.75;2.85;;;3.90;99.90;;;;;;5048819;28;20498;-71
2022/04/08 04:42:43;;;;;;;15.85;2.92;;;3.80;99.90;;;;;;5058858;28;20040;-71
2022/04/08 04:45:10;;;;;;;21.98;3.67;;;4.00;99.90;;;;;;5063357;28;20044;-72
2022/04/08 04:47:36;;;;;;;14.70;2.70;;;3.80;99.90;;;;;;5047987;28;20040;-73
2022/04/08 04:50:02;;;;;;;17.98;3.20;;;3.80;99.90;;;;;;5044862;28;20052;-72
2022/04/08 04:52:27;;;;;;;17.35;3.10;;;3.60;99.90;;;;;;5032008;28;20370;-74
2022/04/08 04:54:53;;;;;;;18.88;3.33;;;3.50;99.90;;;;;;5055572;28;20090;-78
2022/04/08 04:57:19;;;;;;;21.75;3.33;;;3.40;99.90;;;;;;5034217;28;20546;-75
2022/04/08 04:59:44;;;;;;;26.15;5.13;;;3.60;99.90;;;;;;5059897;28;20120;-74
2022/04/08 05:02:10;;;;;;;27.92;4.18;;;3.50;99.90;;;;;;5049391;28;20075;-75
2022/04/08 05:04:35;;;;;;;17.65;2.70;;;3.50;99.90;;;;;;5040146;28;20037;-74
2022/04/08 05:07:01;;;;;;;19.20;2.97;;;3.70;99.90;;;;;;5051087;28;20462;-77
2022/04/08 05:09:26;;;;;;;17.63;3.30;;;3.70;99.90;;;;;;5033906;28;20045;-75
2022/04/08 05:11:52;;;;;;;16.98;3.20;;;3.60;99.90;;;;;;5050086;28;20100;-74
2022/04/08 05:14:17;;;;;;;11.57;3.00;;;3.70;99.90;;;;;;5050180;28;20071;-74
2022/04/08 05:16:43;;;;;;;22.17;2.80;;;3.70;99.90;;;;;;5034195;28;20402;-68
2022/04/08 05:19:09;;;;;;;11.93;2.65;;;3.60;99.90;;;;;;5065155;28;20037;-74
2022/04/08 05:21:35;;;;;;;11.23;3.38;;;3.80;99.90;;;;;;5049360;28;20052;-75
2022/04/08 05:24:00;;;;;;;16.00;3.13;;;3.60;99.90;;;;;;5046224;28;20034;-71
2022/04/08 05:26:26;;;;;;;10.25;2.13;;;3.60;99.90;;;;;;5049305;28;20454;-68
2022/04/08 05:28:51;;;;;;;8.40;2.85;;;3.40;99.90;;;;;;5049802;28;20033;-73
2022/04/08 05:31:17;;;;;;;10.30;2.80;;;3.20;99.90;;;;;;5050340;28;20048;-67
2022/04/08 05:33:42;;;;;;;12.80;3.08;;;3.20;99.90;;;;;;5047721;28;20098;-71
2022/04/08 05:36:08;;;;;;;7.95;1.63;;;3.20;99.90;;;;;;5050042;28;20411;-70
2022/04/08 05:38:34;;;;;;;8.00;2.80;;;3.00;99.90;;;;;;5061817;28;20356;-70
2022/04/08 05:41:00;;;;;;;5.88;1.88;;;2.90;99.90;;;;;;5032670;28;20299;-69
2022/04/08 05:43:26;;;;;;;6.15;2.30;;;3.10;99.90;;;;;;5059742;28;20037;-73
2022/04/08 05:45:52;;;;;;;9.50;2.20;;;2.90;99.90;;;;;;5038186;28;20037;-73
2022/04/08 05:48:17;;;;;;;6.22;2.05;;;3.00;99.90;;;;;;5047572;28;20041;-70
2022/04/08 05:50:43;;;;;;;8.13;2.60;;;2.80;99.90;;;;;;5050344;28;20116;-68
2022/04/08 05:53:09;;;;;;;6.20;1.95;;;3.00;99.90;;;;;;5041021;28;20029;-70
2022/04/08 05:55:34;;;;;;;6.38;2.17;;;2.80;99.90;;;;;;5044639;28;20036;-69
2022/04/08 05:58:00;;;;;;;6.13;2.03;;;2.90;99.90;;;;;;5045778;28;20045;-70
2022/04/08 06:00:25;;;;;;;11.38;2.60;;;2.80;99.90;;;;;;5048947;28;20048;-69
2022/04/08 06:02:53;;;;;;;4.78;2.03;;;2.80;99.90;;;;;;5032643;28;20121;-73
2022/04/08 06:05:19;;;;;;;8.52;1.92;;;2.90;99.90;;;;;;5048129;28;20037;-67
2022/04/08 06:07:46;;;;;;;13.25;4.03;;;2.50;99.90;;;;;;5048653;28;20036;-71
2022/04/08 06:10:12;;;;;;;9.93;3.50;;;2.60;99.90;;;;;;5049233;28;20044;-71
2022/04/08 06:12:38;;;;;;;11.27;3.63;;;2.60;99.90;;;;;;5058008;28;20086;-69
2022/04/08 06:15:04;;;;;;;11.30;3.47;;;2.50;99.90;;;;;;5064420;28;20040;-69
2022/04/08 06:17:37;;;;;;;8.63;3.22;;;2.40;99.90;;;;;;5054729;28;20041;-68
2022/04/08 06:20:07;;;;;;;7.90;3.65;;;2.60;99.90;;;;;;5047502;28;20132;-68
2022/04/08 06:22:32;;;;;;;6.07;2.45;;;2.50;99.90;;;;;;5046927;28;20040;-68
2022/04/08 06:24:58;;;;;;;7.07;2.47;;;2.90;99.90;;;;;;5032708;28;20435;-70
2022/04/08 06:27:23;;;;;;;7.18;2.30;;;2.90;99.90;;;;;;5060577;28;20384;-73
2022/04/08 06:29:49;;;;;;;9.30;2.78;;;3.40;99.90;;;;;;5048430;28;20049;-72
2022/04/08 06:32:14;;;;;;;6.80;2.50;;;3.40;99.90;;;;;;5049014;28;20456;-68
2022/04/08 06:34:40;;;;;;;7.18;1.85;;;3.40;99.90;;;;;;5055275;28;20049;-73
2022/04/08 06:37:06;;;;;;;4.95;2.15;;;3.30;99.90;;;;;;5062641;28;20037;-69
2022/04/08 06:39:31;;;;;;;9.85;2.38;;;3.50;99.90;;;;;;5046310;28;20131;-73
2022/04/08 06:41:57;;;;;;;7.30;1.83;;;3.20;99.90;;;;;;5049356;28;20044;-69
2022/04/08 06:44:23;;;;;;;6.53;2.70;;;3.20;99.90;;;;;;5047334;28;20037;-67
2022/04/08 06:46:48;;;;;;;4.07;1.98;;;3.40;99.90;;;;;;5050258;28;20036;-73
2022/04/08 06:49:14;;;;;;;9.55;3.00;;;3.50;99.90;;;;;;5049515;28;20045;-71
2022/04/08 06:51:39;;;;;;;10.25;3.47;;;3.50;99.90;;;;;;5050001;28;20033;-69
2022/04/08 06:54:05;;;;;;;6.93;3.15;;;3.60;99.90;;;;;;5032604;28;20518;-71
2022/04/08 06:56:30;;;;;;;6.38;2.97;;;3.70;99.90;;;;;;5031704;28;20069;-70
2022/04/08 06:58:56;;;;;;;7.18;2.75;;;3.60;99.90;;;;;;5041870;28;20119;-69
2022/04/08 07:01:24;;;;;;;10.65;3.30;;;3.90;99.90;;;;;;5048759;28;20105;-69
2022/04/08 07:03:49;;;;;;;11.93;2.53;;;4.10;99.90;;;;;;5046581;28;20123;-70
2022/04/08 07:06:15;;;;;;;9.80;2.75;;;3.90;99.90;;;;;;5039213;28;20123;-70
2022/04/08 07:08:40;;;;;;;13.82;3.58;;;4.00;99.90;;;;;;5055506;28;20037;-69
2022/04/08 07:11:06;;;;;;;15.38;3.50;;;4.10;99.90;;;;;;5047172;28;20079;-67
2022/04/08 07:13:31;;;;;;;8.05;2.08;;;4.30;99.90;;;;;;5050717;28;20080;-68
2022/04/08 07:15:57;;;;;;;11.52;2.67;;;4.20;99.90;;;;;;5067907;28;20049;-67
2022/04/08 07:18:22;;;;;;;13.50;3.35;;;4.20;99.90;;;;;;5066153;28;20127;-68
2022/04/08 07:20:48;;;;;;;8.50;3.92;;;4.30;99.90;;;;;;5068320;28;20046;-69
2022/04/08 07:23:13;;;;;;;19.65;4.95;;;4.20;99.90;;;;;;5060970;28;20175;-68
2022/04/08 07:25:39;;;;;;;18.27;4.85;;;4.20;99.90;;;;;;5049197;28;20493;-69
2022/04/08 07:28:05;;;;;;;14.27;5.05;;;4.10;99.90;;;;;;5043663;28;20037;-70
2022/04/08 07:30:30;;;;;;;13.65;4.38;;;4.00;99.90;;;;;;5051789;28;20373;-69
2022/04/08 07:32:56;;;;;;;11.45;4.53;;;4.00;99.90;;;;;;5060763;28;20122;-69
2022/04/08 07:35:25;;;;;;;11.93;4.32;;;3.90;99.90;;;;;;5049499;28;20037;-68
2022/04/08 07:37:51;;;;;;;16.13;5.25;;;4.20;99.90;;;;;;5051952;28;20040;-69
2022/04/08 07:40:18;;;;;;;16.60;5.00;;;3.80;99.90;;;;;;5051450;28;20069;-69
2022/04/08 07:42:49;;;;;;;13.38;5.40;;;4.00;99.90;;;;;;5050107;28;20033;-70
2022/04/08 07:45:15;;;;;;;15.75;5.20;;;3.80;99.90;;;;;;5068120;28;20037;-68
2022/04/08 07:47:40;;;;;;;18.63;5.53;;;3.60;99.90;;;;;;5050828;28;20128;-68
2022/04/08 07:50:10;;;;;;;20.17;6.15;;;3.70;99.90;;;;;;5050419;28;20071;-68
2022/04/08 07:52:36;;;;;;;18.65;5.70;;;3.80;99.90;;;;;;5031950;28;20056;-67
2022/04/08 07:55:02;;;;;;;21.70;6.35;;;3.70;99.90;;;;;;5032089;28;20037;-68
2022/04/08 07:57:28;;;;;;;22.52;6.68;;;3.80;99.90;;;;;;5048478;28;20557;-69
2022/04/08 07:59:53;;;;;;;25.48;7.80;;;3.80;99.90;;;;;;5048178;28;20037;-66
2022/04/08 08:02:19;;;;;;;20.25;7.25;;;3.30;99.90;;;;;;5048714;28;20468;-69
2022/04/08 08:04:44;;;;;;;22.95;7.20;;;3.20;99.90;;;;;;5050285;28;20043;-72
2022/04/08 08:07:10;;;;;;;30.33;8.23;;;3.70;99.90;;;;;;5056680;28;20037;-73
2022/04/08 08:09:36;;;;;;;16.10;5.85;;;3.80;99.90;;;;;;5047772;28;20087;-68
2022/04/08 08:12:03;;;;;;;23.55;7.28;;;3.90;99.90;;;;;;5050300;28;20037;-71
2022/04/08 08:14:29;;;;;;;20.40;5.72;;;3.70;99.90;;;;;;5045977;28;20476;-68
2022/04/08 08:16:54;;;;;;;24.30;8.10;;;3.70;99.90;;;;;;5051813;28;20044;-71
2022/04/08 08:19:20;;;;;;;20.88;7.05;;;3.90;99.90;;;;;;5052431;28;20102;-65
2022/04/08 08:21:45;;;;;;;19.17;6.22;;;4.10;99.90;;;;;;5051113;28;20468;-67
2022/04/08 08:24:11;;;;;;;20.15;6.60;;;4.10;99.90;;;;;;5035489;28;20044;-70
2022/04/08 08:26:36;;;;;;;18.90;6.40;;;3.80;99.90;;;;;;5051731;28;20127;-67
2022/04/08 08:29:02;;;;;;;16.33;5.60;;;4.00;99.90;;;;;;5052317;28;20547;-68
2022/04/08 08:31:28;;;;;;;31.48;7.72;;;3.90;99.90;;;;;;5033264;28;20041;-69
2022/04/08 08:33:53;;;;;;;17.95;6.55;;;4.30;99.90;;;;;;5018303;28;20076;-69
2022/04/08 08:36:19;;;;;;;18.90;6.07;;;4.30;99.90;;;;;;5036653;28;20114;-69
2022/04/08 08:38:44;;;;;;;17.48;5.25;;;4.40;99.90;;;;;;5051939;28;20133;-69
2022/04/08 08:41:10;;;;;;;20.33;5.32;;;4.60;99.90;;;;;;5053535;28;20127;-68
2022/04/08 08:43:37;;;;;;;19.67;4.80;;;4.70;99.90;;;;;;5053909;28;20404;-69
2022/04/08 08:46:04;;;;;;;23.85;5.05;;;5.00;99.90;;;;;;5053960;28;20045;-69
2022/04/08 08:48:33;;;;;;;15.23;5.07;;;5.10;99.90;;;;;;5050152;28;20438;-68
2022/04/08 08:51:02;;;;;;;25.17;5.75;;;5.00;99.90;;;;;;5052475;28;20043;-69
2022/04/08 08:53:30;;;;;;;25.08;5.72;;;5.20;99.90;;;;;;5053843;28;20051;-70
2022/04/08 08:55:56;;;;;;;17.63;5.68;;;5.50;99.90;;;;;;5053351;28;20045;-70
2022/04/08 08:58:23;;;;;;;25.60;6.68;;;5.60;99.90;;;;;;5051613;28;20445;-72
2022/04/08 09:00:49;;;;;;;24.27;6.53;;;5.50;99.90;;;;;;5053006;28;20041;-70
2022/04/08 09:03:15;;;;;;;28.02;8.20;;;5.70;99.90;;;;;;5036427;28;20044;-69
2022/04/08 09:05:45;;;;;;;28.48;8.40;;;5.80;99.90;;;;;;5046968;28;20553;-71
2022/04/08 09:08:12;;;;;;;27.83;8.35;;;6.00;99.90;;;;;;5016353;28;20042;-69
2022/04/08 09:10:43;;;;;;;25.17;8.65;;;6.30;99.90;;;;;;5034649;28;20046;-70
2022/04/08 09:13:10;;;;;;;27.15;8.55;;;6.30;99.90;;;;;;5050647;28;20052;-70
2022/04/08 09:15:39;;;;;;;28.42;7.97;;;6.50;99.90;;;;;;5060125;28;20048;-70
2022/04/08 09:18:08;;;;;;;41.58;9.43;;;6.50;99.90;;;;;;5051869;28;20080;-69
2022/04/08 09:20:42;;;;;;;24.00;8.18;;;6.70;99.90;;;;;;5031182;28;20037;-71
2022/04/08 09:23:09;;;;;;;31.17;7.47;;;6.70;99.90;;;;;;5032361;28;20115;-70
2022/04/08 09:25:35;;;;;;;24.98;7.20;;;6.90;99.90;;;;;;5030929;28;20535;-72
2022/04/08 09:28:12;;;;;;;33.35;8.30;;;6.90;99.90;;;;;;5067304;28;20189;-70
2022/04/08 09:30:39;;;;;;;30.88;6.68;;;6.90;99.90;;;;;;5038243;28;20037;-76
2022/04/08 09:33:16;;;;;;;23.60;6.40;;;7.00;99.90;;;;;;5058712;28;20048;-72
2022/04/08 09:35:42;;;;;;;19.33;4.97;;;7.10;99.90;;;;;;5031458;28;20036;-72
2022/04/08 09:38:09;;;;;;;27.50;6.47;;;7.30;99.90;;;;;;5050622;28;20041;-72
2022/04/08 09:40:35;;;;;;;33.00;6.90;;;7.40;99.90;;;;;;5057033;28;20091;-74
2022/04/08 09:43:02;;;;;;;23.25;7.20;;;7.50;99.90;;;;;;5051019;28;20049;-70
2022/04/08 09:45:30;;;;;;;25.48;7.30;;;7.70;99.90;;;;;;5025725;28;20082;-71
2022/04/08 09:48:06;;;;;;;27.02;6.22;;;7.90;99.90;;;;;;5030189;28;20033;-79
2022/04/08 09:50:33;;;;;;;20.48;5.97;;;8.00;99.90;;;;;;5049642;28;20045;-71
2022/04/08 09:53:02;;;;;;;20.27;5.93;;;7.90;99.90;;;;;;5047021;28;20052;-73
2022/04/08 09:55:28;;;;;;;29.85;6.40;;;7.90;99.90;;;;;;5031758;28;20040;-69
2022/04/08 09:58:03;;;;;;;26.73;5.50;;;7.80;99.90;;;;;;5050036;28;20133;-72
2022/04/08 10:00:30;;;;;;;21.65;6.05;;;8.00;99.90;;;;;;5053557;28;20053;-73
2022/04/08 10:02:58;;;;;;;27.48;5.47;;;8.00;99.90;;;;;;5034022;28;20048;-69
2022/04/08 10:05:25;;;;;;;20.13;4.40;;;8.10;99.90;;;;;;5050210;28;20431;-75
2022/04/08 10:07:53;;;;;;;11.88;4.38;;;8.00;99.90;;;;;;5050420;28;20425;-70
2022/04/08 10:10:40;;;;;;;16.08;5.45;;;8.20;99.90;;;;;;5055095;28;20029;-67
2022/04/08 10:13:31;;;;;;;20.15;5.25;;;8.30;99.90;;;;;;5050358;28;20036;-72
2022/04/08 10:16:17;;;;;;;21.80;5.15;;;8.30;99.90;;;;;;5047009;28;20049;-72
2022/04/08 10:18:44;;;;;;;20.05;4.70;;;8.20;99.90;;;;;;5038110;28;20041;-75
2022/04/08 10:21:10;;;;;;;22.42;5.25;;;8.20;99.90;;;;;;5033594;28;20091;-74
2022/04/08 10:23:51;;;;;;;24.67;5.30;;;8.30;99.90;;;;;;5050578;28;20040;-77
2022/04/08 10:26:24;;;;;;;24.48;5.50;;;8.30;99.90;;;;;;5041964;28;20033;-71
2022/04/08 10:28:51;;;;;;;19.48;5.97;;;8.40;99.90;;;;;;5032786;28;20032;-72
2022/04/08 10:31:27;;;;;;;19.83;4.65;;;8.30;99.90;;;;;;5048590;28;20052;-70
2022/04/08 10:33:52;;;;;;;20.58;4.60;;;8.40;99.90;;;;;;5050206;28;20045;-72
2022/04/08 10:36:29;;;;;;;18.75;5.00;;;8.40;99.90;;;;;;5049841;28;20044;-65
2022/04/08 10:39:26;;;;;;;22.83;5.40;;;8.30;99.90;;;;;;5066375;28;20041;-75
2022/04/08 10:42:00;;;;;;;20.83;6.13;;;8.40;99.90;;;;;;5048710;28;20037;-66
2022/04/08 10:44:37;;;;;;;22.45;6.10;;;8.40;99.90;;;;;;5033120;28;20049;-73
2022/04/08 10:47:10;;;;;;;20.15;6.03;;;8.20;99.90;;;;;;5049956;28;20518;-67
2022/04/08 10:49:51;;;;;;;17.58;5.13;;;8.00;99.90;;;;;;5032295;28;20080;-71
2022/04/08 10:52:25;;;;;;;15.38;5.25;;;7.90;99.90;;;;;;5049810;28;20494;-74
2022/04/08 10:54:52;;;;;;;18.85;5.50;;;8.00;99.90;;;;;;5049349;28;20427;-72
2022/04/08 10:57:34;;;;;;;25.25;6.03;;;8.20;99.90;;;;;;5053159;28;20102;-67
2022/04/08 11:00:06;;;;;;;16.23;5.65;;;8.50;99.90;;;;;;5048767;28;20048;-72
2022/04/08 11:02:36;;;;;;;23.50;6.03;;;8.80;99.90;;;;;;5049453;28;20045;-72
2022/04/08 11:05:08;;;;;;;20.77;4.82;;;9.00;99.90;;;;;;5042157;28;20043;-74
2022/04/08 11:07:34;;;;;;;19.27;4.77;;;8.90;99.90;;;;;;5049406;28;20391;-74
2022/04/08 11:10:00;;;;;;;17.02;3.60;;;8.70;99.90;;;;;;5051969;28;20037;-75
2022/04/08 11:12:28;;;;;;;13.57;4.15;;;8.40;99.90;;;;;;5046655;28;20055;-75
2022/04/08 11:14:55;;;;;;;27.48;5.25;;;8.20;99.90;;;;;;5028105;28;20040;-75
2022/04/08 11:17:21;;;;;;;14.20;4.63;;;7.90;99.90;;;;;;5048830;28;20435;-78
2022/04/08 11:19:49;;;;;;;15.73;4.05;;;7.70;99.90;;;;;;5048693;28;20048;-72
2022/04/08 11:22:15;;;;;;;19.13;4.47;;;7.70;99.90;;;;;;5066298;28;20500;-77
2022/04/08 11:24:41;;;;;;;20.17;4.32;;;7.70;99.90;;;;;;5047577;28;20040;-70
2022/04/08 11:27:08;;;;;;;19.48;3.75;;;7.70;99.90;;;;;;5045187;28;20504;-73
2022/04/08 11:29:36;;;;;;;19.02;4.70;;;7.70;99.90;;;;;;5038879;28;20056;-73
2022/04/08 11:32:08;;;;;;;12.55;4.05;;;7.60;99.90;;;;;;5047719;28;20491;-71
2022/04/08 11:34:35;;;;;;;20.98;4.60;;;7.30;99.90;;;;;;5055150;28;20484;-73
2022/04/08 11:37:01;;;;;;;16.15;4.53;;;6.90;99.90;;;;;;5046248;28;20048;-77
2022/04/08 11:39:27;;;;;;;18.58;5.72;;;6.40;99.90;;;;;;5040671;28;20037;-76
2022/04/08 11:41:55;;;;;;;20.98;6.22;;;6.10;99.90;;;;;;5059704;28;20045;-74
2022/04/08 11:44:21;;;;;;;19.23;6.78;;;6.00;99.90;;;;;;5034133;28;20472;-67
2022/04/08 11:46:48;;;;;;;25.17;6.97;;;6.10;99.90;;;;;;5053164;28;20124;-68
2022/04/08 11:49:14;;;;;;;19.08;6.78;;;6.30;99.90;;;;;;5035419;28;20049;-68
2022/04/08 11:51:39;;;;;;;18.75;6.78;;;6.40;99.90;;;;;;5051496;28;20396;-69
2022/04/08 11:54:05;;;;;;;18.92;5.40;;;6.60;99.90;;;;;;5053560;28;20041;-68
2022/04/08 11:56:32;;;;;;;17.42;6.05;;;6.90;99.90;;;;;;5053115;28;20048;-69
2022/04/08 11:59:02;;;;;;;21.25;4.75;;;7.40;99.90;;;;;;5049679;28;20741;-72
2022/04/08 12:01:40;;;;;;;19.58;6.35;;;7.70;99.90;;;;;;5051872;28;20484;-69
2022/04/08 12:04:09;;;;;;;21.73;5.10;;;7.80;99.90;;;;;;5056469;28;20032;-70
2022/04/08 12:06:47;;;;;;;9.88;3.67;;;8.00;99.90;;;;;;5053743;28;20037;-74
2022/04/08 12:09:15;;;;;;;16.15;4.82;;;8.20;99.90;;;;;;5050609;28;20115;-72
2022/04/08 12:11:42;;;;;;;17.42;5.05;;;8.30;99.90;;;;;;5023804;28;20029;-71
2022/04/08 12:14:09;;;;;;;18.45;6.30;;;8.40;99.90;;;;;;5051148;28;20385;-73
2022/04/08 12:16:36;;;;;;;27.02;7.35;;;8.60;99.90;;;;;;5052355;28;20120;-70
2022/04/08 12:19:02;;;;;;;14.48;5.60;;;8.60;99.90;;;;;;5068426;28;20040;-70
2022/04/08 12:21:30;;;;;;;10.05;4.53;;;8.70;99.90;;;;;;5068782;28;20091;-69
2022/04/08 12:24:03;;;;;;;11.27;2.92;;;8.70;99.90;;;;;;5067165;28;20126;-72
2022/04/08 12:26:34;;;;;;;16.15;2.97;;;8.70;99.90;;;;;;5068770;28;20029;-71
2022/04/08 12:29:08;;;;;;;8.73;2.95;;;8.90;99.90;;;;;;5049658;28;20037;-66
2022/04/08 12:31:48;;;;;;;12.23;2.75;;;9.10;99.90;;;;;;5036042;28;20061;-72
2022/04/08 12:34:17;;;;;;;7.95;1.77;;;9.10;99.90;;;;;;5032307;28;20563;-70
2022/04/08 12:36:45;;;;;;;7.53;1.85;;;9.10;99.90;;;;;;5033852;28;20049;-72
2022/04/08 12:39:13;;;;;;;10.70;2.00;;;9.10;99.90;;;;;;5046651;28;20041;-69
2022/04/08 12:41:40;;;;;;;5.85;2.00;;;9.30;99.90;;;;;;5046266;28;20032;-70
2022/04/08 12:44:06;;;;;;;5.30;1.50;;;9.30;99.90;;;;;;5064357;28;20571;-77
2022/04/08 12:46:32;;;;;;;3.35;1.55;;;9.30;99.90;;;;;;5064268;28;20033;-70